sensor_id;sensor_type;location;lat;lon;timestamp;P1;durP1;ratioP1;P2;durP2;ratioP2
48516;SDS011;34310;51.904;4.256;2022-11-10T00:01:05;3.63;;;1.63;;
48516;SDS011;34310;51.904;4.256;2022-11-10T00:03:34;3.83;;;1.35;;
48516;SDS011;34310;51.904;4.256;2022-11-10T00:06:04;4.18;;;1.65;;
48516;SDS011;34310;51.904;4.256;2022-11-10T00:08:32;3.33;;;1.30;;
48516;SDS011;34310;51.904;4.256;2022-11-10T00:11:04;4.50;;;1.20;;
48516;SDS011;34310;51.904;4.256;2022-11-10T00:13:36;4.07;;;1.42;;
48516;SDS011;34310;51.904;4.256;2022-11-10T00:16:26;1.70;;;1.02;;
48516;SDS011;34310;51.904;4.256;2022-11-10T00:19:12;2.58;;;1.15;;
48516;SDS011;34310;51.904;4.256;2022-11-10T00:21:39;4.97;;;1.63;;
48516;SDS011;34310;51.904;4.256;2022-11-10T00:24:06;3.05;;;1.27;;
48516;SDS011;34310;51.904;4.256;2022-11-10T00:26:34;2.63;;;1.23;;
48516;SDS011;34310;51.904;4.256;2022-11-10T00:29:01;3.85;;;1.35;;
48516;SDS011;34310;51.904;4.256;2022-11-10T00:31:28;3.60;;;1.42;;
48516;SDS011;34310;51.904;4.256;2022-11-10T00:33:55;2.30;;;1.17;;
48516;SDS011;34310;51.904;4.256;2022-11-10T00:36:23;3.33;;;1.27;;
48516;SDS011;34310;51.904;4.256;2022-11-10T00:38:51;3.22;;;1.33;;
48516;SDS011;34310;51.904;4.256;2022-11-10T00:41:18;3.50;;;1.23;;
48516;SDS011;34310;51.904;4.256;2022-11-10T00:43:46;4.70;;;1.55;;
48516;SDS011;34310;51.904;4.256;2022-11-10T00:46:14;4.50;;;1.20;;
48516;SDS011;34310;51.904;4.256;2022-11-10T00:48:41;2.55;;;1.13;;
48516;SDS011;34310;51.904;4.256;2022-11-10T00:51:11;3.83;;;1.80;;
48516;SDS011;34310;51.904;4.256;2022-11-10T00:53:50;4.72;;;1.42;;
48516;SDS011;34310;51.904;4.256;2022-11-10T00:56:18;2.63;;;1.52;;
48516;SDS011;34310;51.904;4.256;2022-11-10T00:58:46;3.13;;;1.23;;
48516;SDS011;34310;51.904;4.256;2022-11-10T01:01:14;2.88;;;1.40;;
48516;SDS011;34310;51.904;4.256;2022-11-10T01:03:42;5.20;;;1.75;;
48516;SDS011;34310;51.904;4.256;2022-11-10T01:06:11;4.63;;;1.48;;
48516;SDS011;34310;51.904;4.256;2022-11-10T01:08:40;3.22;;;1.40;;
48516;SDS011;34310;51.904;4.256;2022-11-10T01:11:13;3.88;;;1.42;;
48516;SDS011;34310;51.904;4.256;2022-11-10T01:13:42;3.30;;;1.23;;
48516;SDS011;34310;51.904;4.256;2022-11-10T01:16:12;2.83;;;1.30;;
48516;SDS011;34310;51.904;4.256;2022-11-10T01:18:41;3.83;;;1.20;;
48516;SDS011;34310;51.904;4.256;2022-11-10T01:21:08;4.20;;;1.30;;
48516;SDS011;34310;51.904;4.256;2022-11-10T01:23:36;5.50;;;1.42;;
48516;SDS011;34310;51.904;4.256;2022-11-10T01:26:04;3.38;;;1.30;;
48516;SDS011;34310;51.904;4.256;2022-11-10T01:28:33;2.72;;;1.23;;
48516;SDS011;34310;51.904;4.256;2022-11-10T01:31:03;3.25;;;1.40;;
48516;SDS011;34310;51.904;4.256;2022-11-10T01:33:35;3.55;;;1.50;;
48516;SDS011;34310;51.904;4.256;2022-11-10T01:36:03;3.15;;;1.20;;
48516;SDS011;34310;51.904;4.256;2022-11-10T01:38:33;3.90;;;1.40;;
48516;SDS011;34310;51.904;4.256;2022-11-10T01:41:02;3.67;;;1.55;;
48516;SDS011;34310;51.904;4.256;2022-11-10T01:43:31;3.38;;;1.30;;
48516;SDS011;34310;51.904;4.256;2022-11-10T01:45:59;4.47;;;1.50;;
48516;SDS011;34310;51.904;4.256;2022-11-10T01:50:54;3.50;;;1.52;;
48516;SDS011;34310;51.904;4.256;2022-11-10T01:53:27;3.55;;;1.45;;
48516;SDS011;34310;51.904;4.256;2022-11-10T01:56:00;2.90;;;1.27;;
48516;SDS011;34310;51.904;4.256;2022-11-10T01:58:31;3.35;;;1.30;;
48516;SDS011;34310;51.904;4.256;2022-11-10T02:01:06;3.75;;;1.60;;
48516;SDS011;34310;51.904;4.256;2022-11-10T02:03:43;3.75;;;1.33;;
48516;SDS011;34310;51.904;4.256;2022-11-10T02:06:16;5.00;;;1.38;;
48516;SDS011;34310;51.904;4.256;2022-11-10T02:08:46;4.35;;;1.60;;
48516;SDS011;34310;51.904;4.256;2022-11-10T02:11:14;4.28;;;1.60;;
48516;SDS011;34310;51.904;4.256;2022-11-10T02:13:41;5.07;;;1.55;;
48516;SDS011;34310;51.904;4.256;2022-11-10T02:16:09;6.30;;;1.88;;
48516;SDS011;34310;51.904;4.256;2022-11-10T02:18:37;3.80;;;1.27;;
48516;SDS011;34310;51.904;4.256;2022-11-10T02:21:05;4.20;;;1.45;;
48516;SDS011;34310;51.904;4.256;2022-11-10T02:26:02;3.28;;;1.30;;
48516;SDS011;34310;51.904;4.256;2022-11-10T02:28:35;4.25;;;1.50;;
48516;SDS011;34310;51.904;4.256;2022-11-10T02:31:03;2.80;;;1.27;;
48516;SDS011;34310;51.904;4.256;2022-11-10T02:33:32;5.93;;;1.75;;
48516;SDS011;34310;51.904;4.256;2022-11-10T02:36:00;3.95;;;1.38;;
48516;SDS011;34310;51.904;4.256;2022-11-10T02:38:28;3.67;;;1.35;;
48516;SDS011;34310;51.904;4.256;2022-11-10T02:40:55;3.40;;;1.30;;
48516;SDS011;34310;51.904;4.256;2022-11-10T02:43:23;3.88;;;1.83;;
48516;SDS011;34310;51.904;4.256;2022-11-10T02:45:50;3.55;;;1.20;;
48516;SDS011;34310;51.904;4.256;2022-11-10T02:48:18;4.50;;;1.30;;
48516;SDS011;34310;51.904;4.256;2022-11-10T02:50:45;3.05;;;1.33;;
48516;SDS011;34310;51.904;4.256;2022-11-10T02:53:13;3.95;;;1.58;;
48516;SDS011;34310;51.904;4.256;2022-11-10T02:55:40;3.67;;;1.27;;
48516;SDS011;34310;51.904;4.256;2022-11-10T02:58:07;4.10;;;1.35;;
48516;SDS011;34310;51.904;4.256;2022-11-10T03:00:35;3.40;;;1.20;;
48516;SDS011;34310;51.904;4.256;2022-11-10T03:03:02;3.17;;;1.27;;
48516;SDS011;34310;51.904;4.256;2022-11-10T03:05:30;3.50;;;1.30;;
48516;SDS011;34310;51.904;4.256;2022-11-10T03:07:58;3.88;;;1.60;;
48516;SDS011;34310;51.904;4.256;2022-11-10T03:10:27;4.38;;;1.45;;
48516;SDS011;34310;51.904;4.256;2022-11-10T03:12:55;3.70;;;1.15;;
48516;SDS011;34310;51.904;4.256;2022-11-10T03:15:24;4.35;;;1.63;;
48516;SDS011;34310;51.904;4.256;2022-11-10T03:17:51;2.20;;;1.20;;
48516;SDS011;34310;51.904;4.256;2022-11-10T03:20:19;4.63;;;1.30;;
48516;SDS011;34310;51.904;4.256;2022-11-10T03:22:47;4.75;;;1.38;;
48516;SDS011;34310;51.904;4.256;2022-11-10T03:25:14;4.53;;;1.60;;
48516;SDS011;34310;51.904;4.256;2022-11-10T03:27:41;3.42;;;1.45;;
48516;SDS011;34310;51.904;4.256;2022-11-10T03:30:09;4.35;;;1.60;;
48516;SDS011;34310;51.904;4.256;2022-11-10T03:32:36;5.47;;;1.50;;
48516;SDS011;34310;51.904;4.256;2022-11-10T03:35:04;3.42;;;1.65;;
48516;SDS011;34310;51.904;4.256;2022-11-10T03:37:31;3.85;;;1.30;;
48516;SDS011;34310;51.904;4.256;2022-11-10T03:39:58;5.00;;;1.55;;
48516;SDS011;34310;51.904;4.256;2022-11-10T03:42:25;3.47;;;1.40;;
48516;SDS011;34310;51.904;4.256;2022-11-10T03:44:53;5.25;;;1.48;;
48516;SDS011;34310;51.904;4.256;2022-11-10T03:47:20;5.30;;;1.30;;
48516;SDS011;34310;51.904;4.256;2022-11-10T03:49:47;3.95;;;1.40;;
48516;SDS011;34310;51.904;4.256;2022-11-10T03:52:15;5.32;;;1.50;;
48516;SDS011;34310;51.904;4.256;2022-11-10T03:54:42;3.88;;;1.50;;
48516;SDS011;34310;51.904;4.256;2022-11-10T03:57:09;3.00;;;1.35;;
48516;SDS011;34310;51.904;4.256;2022-11-10T03:59:36;2.78;;;1.25;;
48516;SDS011;34310;51.904;4.256;2022-11-10T04:02:04;6.03;;;1.60;;
48516;SDS011;34310;51.904;4.256;2022-11-10T04:04:31;3.33;;;1.20;;
48516;SDS011;34310;51.904;4.256;2022-11-10T04:07:17;5.10;;;1.40;;
48516;SDS011;34310;51.904;4.256;2022-11-10T04:10:03;2.75;;;1.30;;
48516;SDS011;34310;51.904;4.256;2022-11-10T04:12:31;4.22;;;1.70;;
48516;SDS011;34310;51.904;4.256;2022-11-10T04:15:17;3.13;;;1.30;;
48516;SDS011;34310;51.904;4.256;2022-11-10T04:18:03;2.95;;;1.30;;
48516;SDS011;34310;51.904;4.256;2022-11-10T04:20:52;4.18;;;1.60;;
48516;SDS011;34310;51.904;4.256;2022-11-10T04:23:28;6.05;;;1.35;;
48516;SDS011;34310;51.904;4.256;2022-11-10T04:26:07;4.15;;;1.30;;
48516;SDS011;34310;51.904;4.256;2022-11-10T04:28:55;4.37;;;1.50;;
48516;SDS011;34310;51.904;4.256;2022-11-10T04:31:25;3.08;;;1.58;;
48516;SDS011;34310;51.904;4.256;2022-11-10T04:33:53;3.83;;;1.40;;
48516;SDS011;34310;51.904;4.256;2022-11-10T04:36:22;3.67;;;1.33;;
48516;SDS011;34310;51.904;4.256;2022-11-10T04:38:52;6.22;;;1.70;;
48516;SDS011;34310;51.904;4.256;2022-11-10T04:41:23;4.32;;;1.40;;
48516;SDS011;34310;51.904;4.256;2022-11-10T04:43:51;4.97;;;1.50;;
48516;SDS011;34310;51.904;4.256;2022-11-10T04:48:55;3.70;;;1.50;;
48516;SDS011;34310;51.904;4.256;2022-11-10T04:51:23;4.72;;;1.65;;
48516;SDS011;34310;51.904;4.256;2022-11-10T04:53:52;4.55;;;1.30;;
48516;SDS011;34310;51.904;4.256;2022-11-10T04:56:21;3.60;;;1.48;;
48516;SDS011;34310;51.904;4.256;2022-11-10T04:58:50;5.40;;;1.50;;
48516;SDS011;34310;51.904;4.256;2022-11-10T05:01:19;5.07;;;1.70;;
48516;SDS011;34310;51.904;4.256;2022-11-10T05:03:48;2.58;;;1.25;;
48516;SDS011;34310;51.904;4.256;2022-11-10T05:06:16;4.47;;;1.60;;
48516;SDS011;34310;51.904;4.256;2022-11-10T05:08:44;3.45;;;1.48;;
48516;SDS011;34310;51.904;4.256;2022-11-10T05:11:12;4.47;;;1.45;;
48516;SDS011;34310;51.904;4.256;2022-11-10T05:13:40;4.03;;;1.35;;
48516;SDS011;34310;51.904;4.256;2022-11-10T05:16:08;3.42;;;1.52;;
48516;SDS011;34310;51.904;4.256;2022-11-10T05:18:36;2.80;;;1.30;;
48516;SDS011;34310;51.904;4.256;2022-11-10T05:21:03;4.40;;;1.20;;
48516;SDS011;34310;51.904;4.256;2022-11-10T05:23:31;5.25;;;1.58;;
48516;SDS011;34310;51.904;4.256;2022-11-10T05:26:05;3.88;;;1.60;;
48516;SDS011;34310;51.904;4.256;2022-11-10T05:28:38;4.32;;;1.63;;
48516;SDS011;34310;51.904;4.256;2022-11-10T05:31:07;4.18;;;1.60;;
48516;SDS011;34310;51.904;4.256;2022-11-10T05:33:35;4.60;;;1.60;;
48516;SDS011;34310;51.904;4.256;2022-11-10T05:36:04;4.15;;;1.50;;
48516;SDS011;34310;51.904;4.256;2022-11-10T05:38:32;3.38;;;1.33;;
48516;SDS011;34310;51.904;4.256;2022-11-10T05:41:05;3.85;;;1.48;;
48516;SDS011;34310;51.904;4.256;2022-11-10T05:43:33;4.45;;;1.58;;
48516;SDS011;34310;51.904;4.256;2022-11-10T05:46:00;3.03;;;1.23;;
48516;SDS011;34310;51.904;4.256;2022-11-10T05:48:27;3.47;;;1.23;;
48516;SDS011;34310;51.904;4.256;2022-11-10T05:50:54;5.63;;;1.60;;
48516;SDS011;34310;51.904;4.256;2022-11-10T05:53:22;3.60;;;1.40;;
48516;SDS011;34310;51.904;4.256;2022-11-10T05:55:49;6.03;;;2.20;;
48516;SDS011;34310;51.904;4.256;2022-11-10T05:58:17;5.65;;;2.08;;
48516;SDS011;34310;51.904;4.256;2022-11-10T06:00:44;3.78;;;1.67;;
48516;SDS011;34310;51.904;4.256;2022-11-10T06:03:15;3.55;;;1.42;;
48516;SDS011;34310;51.904;4.256;2022-11-10T06:05:45;3.67;;;1.55;;
48516;SDS011;34310;51.904;4.256;2022-11-10T06:08:12;4.72;;;1.77;;
48516;SDS011;34310;51.904;4.256;2022-11-10T06:10:39;4.40;;;1.90;;
48516;SDS011;34310;51.904;4.256;2022-11-10T06:13:07;4.10;;;1.40;;
48516;SDS011;34310;51.904;4.256;2022-11-10T06:15:35;4.25;;;1.65;;
48516;SDS011;34310;51.904;4.256;2022-11-10T06:18:03;3.03;;;1.50;;
48516;SDS011;34310;51.904;4.256;2022-11-10T06:20:30;3.15;;;1.50;;
48516;SDS011;34310;51.904;4.256;2022-11-10T06:23:04;5.53;;;1.33;;
48516;SDS011;34310;51.904;4.256;2022-11-10T06:25:36;2.92;;;1.60;;
48516;SDS011;34310;51.904;4.256;2022-11-10T06:28:05;4.55;;;1.50;;
48516;SDS011;34310;51.904;4.256;2022-11-10T06:30:34;3.55;;;1.50;;
48516;SDS011;34310;51.904;4.256;2022-11-10T06:33:02;4.50;;;1.42;;
48516;SDS011;34310;51.904;4.256;2022-11-10T06:35:30;5.40;;;1.88;;
48516;SDS011;34310;51.904;4.256;2022-11-10T06:38:05;4.57;;;1.60;;
48516;SDS011;34310;51.904;4.256;2022-11-10T06:40:34;4.05;;;1.38;;
48516;SDS011;34310;51.904;4.256;2022-11-10T06:43:02;6.07;;;1.92;;
48516;SDS011;34310;51.904;4.256;2022-11-10T06:45:29;4.20;;;1.50;;
48516;SDS011;34310;51.904;4.256;2022-11-10T06:48:15;3.80;;;1.58;;
48516;SDS011;34310;51.904;4.256;2022-11-10T06:50:42;3.65;;;1.45;;
48516;SDS011;34310;51.904;4.256;2022-11-10T06:53:09;3.70;;;1.35;;
48516;SDS011;34310;51.904;4.256;2022-11-10T06:55:38;4.53;;;1.45;;
48516;SDS011;34310;51.904;4.256;2022-11-10T06:58:05;5.55;;;1.70;;
48516;SDS011;34310;51.904;4.256;2022-11-10T07:00:33;4.28;;;1.60;;
48516;SDS011;34310;51.904;4.256;2022-11-10T07:03:01;4.70;;;1.70;;
48516;SDS011;34310;51.904;4.256;2022-11-10T07:05:31;5.25;;;1.70;;
48516;SDS011;34310;51.904;4.256;2022-11-10T07:08:01;8.13;;;2.20;;
48516;SDS011;34310;51.904;4.256;2022-11-10T07:10:50;7.70;;;2.20;;
48516;SDS011;34310;51.904;4.256;2022-11-10T07:13:19;7.97;;;2.25;;
48516;SDS011;34310;51.904;4.256;2022-11-10T07:15:48;5.35;;;2.03;;
48516;SDS011;34310;51.904;4.256;2022-11-10T07:18:15;5.50;;;2.10;;
48516;SDS011;34310;51.904;4.256;2022-11-10T07:20:42;6.40;;;2.10;;
48516;SDS011;34310;51.904;4.256;2022-11-10T07:23:11;5.40;;;1.75;;
48516;SDS011;34310;51.904;4.256;2022-11-10T07:25:38;7.50;;;1.77;;
48516;SDS011;34310;51.904;4.256;2022-11-10T07:28:06;8.15;;;1.90;;
48516;SDS011;34310;51.904;4.256;2022-11-10T07:30:35;8.10;;;2.28;;
48516;SDS011;34310;51.904;4.256;2022-11-10T07:33:04;8.15;;;2.45;;
48516;SDS011;34310;51.904;4.256;2022-11-10T07:35:34;5.10;;;2.00;;
48516;SDS011;34310;51.904;4.256;2022-11-10T07:38:03;5.15;;;1.88;;
48516;SDS011;34310;51.904;4.256;2022-11-10T07:40:32;7.75;;;1.88;;
48516;SDS011;34310;51.904;4.256;2022-11-10T07:43:00;6.30;;;2.13;;
48516;SDS011;34310;51.904;4.256;2022-11-10T07:45:27;6.80;;;2.10;;
48516;SDS011;34310;51.904;4.256;2022-11-10T07:48:03;8.93;;;2.83;;
48516;SDS011;34310;51.904;4.256;2022-11-10T07:50:31;8.45;;;2.40;;
48516;SDS011;34310;51.904;4.256;2022-11-10T07:53:06;8.75;;;2.25;;
48516;SDS011;34310;51.904;4.256;2022-11-10T07:55:39;7.60;;;2.33;;
48516;SDS011;34310;51.904;4.256;2022-11-10T07:58:08;5.15;;;2.00;;
48516;SDS011;34310;51.904;4.256;2022-11-10T08:00:36;7.38;;;2.42;;
48516;SDS011;34310;51.904;4.256;2022-11-10T08:03:18;5.93;;;2.30;;
48516;SDS011;34310;51.904;4.256;2022-11-10T08:05:47;8.98;;;2.20;;
48516;SDS011;34310;51.904;4.256;2022-11-10T08:08:15;4.97;;;1.70;;
48516;SDS011;34310;51.904;4.256;2022-11-10T08:10:42;10.40;;;2.28;;
48516;SDS011;34310;51.904;4.256;2022-11-10T08:13:11;7.75;;;2.70;;
48516;SDS011;34310;51.904;4.256;2022-11-10T08:15:38;8.73;;;2.08;;
48516;SDS011;34310;51.904;4.256;2022-11-10T08:20:36;6.65;;;2.72;;
48516;SDS011;34310;51.904;4.256;2022-11-10T08:23:04;4.93;;;1.67;;
48516;SDS011;34310;51.904;4.256;2022-11-10T08:25:33;6.72;;;2.20;;
48516;SDS011;34310;51.904;4.256;2022-11-10T08:28:11;6.45;;;1.70;;
48516;SDS011;34310;51.904;4.256;2022-11-10T08:30:43;5.10;;;1.98;;
48516;SDS011;34310;51.904;4.256;2022-11-10T08:33:13;4.78;;;1.70;;
48516;SDS011;34310;51.904;4.256;2022-11-10T08:35:43;5.78;;;2.10;;
48516;SDS011;34310;51.904;4.256;2022-11-10T08:38:15;6.88;;;2.10;;
48516;SDS011;34310;51.904;4.256;2022-11-10T08:40:47;7.30;;;2.58;;
48516;SDS011;34310;51.904;4.256;2022-11-10T08:43:16;5.18;;;2.05;;
48516;SDS011;34310;51.904;4.256;2022-11-10T08:45:44;6.35;;;2.15;;
48516;SDS011;34310;51.904;4.256;2022-11-10T08:48:15;5.13;;;1.83;;
48516;SDS011;34310;51.904;4.256;2022-11-10T08:50:44;8.60;;;2.10;;
48516;SDS011;34310;51.904;4.256;2022-11-10T08:53:13;6.28;;;1.77;;
48516;SDS011;34310;51.904;4.256;2022-11-10T08:55:42;4.95;;;1.70;;
48516;SDS011;34310;51.904;4.256;2022-11-10T08:58:14;9.18;;;2.20;;
48516;SDS011;34310;51.904;4.256;2022-11-10T09:00:43;10.05;;;2.53;;
48516;SDS011;34310;51.904;4.256;2022-11-10T09:03:11;7.93;;;2.08;;
48516;SDS011;34310;51.904;4.256;2022-11-10T09:05:40;8.75;;;2.58;;
48516;SDS011;34310;51.904;4.256;2022-11-10T09:08:08;8.93;;;2.00;;
48516;SDS011;34310;51.904;4.256;2022-11-10T09:10:37;5.63;;;2.10;;
48516;SDS011;34310;51.904;4.256;2022-11-10T09:13:07;7.32;;;2.08;;
48516;SDS011;34310;51.904;4.256;2022-11-10T09:15:35;6.72;;;2.33;;
48516;SDS011;34310;51.904;4.256;2022-11-10T09:18:03;5.88;;;1.70;;
48516;SDS011;34310;51.904;4.256;2022-11-10T09:20:32;5.32;;;1.95;;
48516;SDS011;34310;51.904;4.256;2022-11-10T09:23:11;7.57;;;1.92;;
48516;SDS011;34310;51.904;4.256;2022-11-10T09:25:40;6.68;;;2.10;;
48516;SDS011;34310;51.904;4.256;2022-11-10T09:28:12;8.00;;;2.58;;
48516;SDS011;34310;51.904;4.256;2022-11-10T09:30:40;7.78;;;2.45;;
48516;SDS011;34310;51.904;4.256;2022-11-10T09:33:10;5.13;;;1.80;;
48516;SDS011;34310;51.904;4.256;2022-11-10T09:35:37;5.57;;;2.05;;
48516;SDS011;34310;51.904;4.256;2022-11-10T09:38:05;6.68;;;2.08;;
48516;SDS011;34310;51.904;4.256;2022-11-10T09:46:29;6.68;;;2.10;;
48516;SDS011;34310;51.904;4.256;2022-11-10T09:49:19;6.28;;;1.75;;
48516;SDS011;34310;51.904;4.256;2022-11-10T09:51:59;7.47;;;2.00;;
48516;SDS011;34310;51.904;4.256;2022-11-10T09:54:42;6.10;;;2.10;;
48516;SDS011;34310;51.904;4.256;2022-11-10T09:57:14;4.90;;;1.60;;
48516;SDS011;34310;51.904;4.256;2022-11-10T09:59:44;7.68;;;1.70;;
48516;SDS011;34310;51.904;4.256;2022-11-10T10:07:36;5.15;;;1.80;;
48516;SDS011;34310;51.904;4.256;2022-11-10T10:10:16;5.95;;;1.92;;
48516;SDS011;34310;51.904;4.256;2022-11-10T10:12:58;6.25;;;1.70;;
48516;SDS011;34310;51.904;4.256;2022-11-10T10:24:14;3.95;;;1.52;;
48516;SDS011;34310;51.904;4.256;2022-11-10T10:26:51;5.30;;;1.80;;
48516;SDS011;34310;51.904;4.256;2022-11-10T10:29:23;4.78;;;1.45;;
48516;SDS011;34310;51.904;4.256;2022-11-10T10:32:03;5.22;;;1.80;;
48516;SDS011;34310;51.904;4.256;2022-11-10T10:34:35;5.38;;;1.75;;
48516;SDS011;34310;51.904;4.256;2022-11-10T10:37:02;4.18;;;1.67;;
48516;SDS011;34310;51.904;4.256;2022-11-10T10:39:37;4.63;;;1.45;;
48516;SDS011;34310;51.904;4.256;2022-11-10T10:42:15;5.88;;;1.60;;
48516;SDS011;34310;51.904;4.256;2022-11-10T10:47:48;5.18;;;1.70;;
48516;SDS011;34310;51.904;4.256;2022-11-10T10:50:21;5.65;;;1.52;;
48516;SDS011;34310;51.904;4.256;2022-11-10T10:53:05;5.63;;;2.00;;
48516;SDS011;34310;51.904;4.256;2022-11-10T10:56:00;4.90;;;1.83;;
48516;SDS011;34310;51.904;4.256;2022-11-10T10:58:35;3.22;;;1.42;;
48516;SDS011;34310;51.904;4.256;2022-11-10T11:03:48;4.15;;;1.65;;
48516;SDS011;34310;51.904;4.256;2022-11-10T11:06:21;7.93;;;1.92;;
48516;SDS011;34310;51.904;4.256;2022-11-10T11:08:57;8.48;;;2.25;;
48516;SDS011;34310;51.904;4.256;2022-11-10T11:11:34;5.10;;;1.80;;
48516;SDS011;34310;51.904;4.256;2022-11-10T11:19:21;6.30;;;1.98;;
48516;SDS011;34310;51.904;4.256;2022-11-10T11:22:04;8.27;;;2.20;;
48516;SDS011;34310;51.904;4.256;2022-11-10T11:24:57;4.22;;;1.67;;
48516;SDS011;34310;51.904;4.256;2022-11-10T11:33:19;6.28;;;1.90;;
48516;SDS011;34310;51.904;4.256;2022-11-10T11:38:53;7.43;;;1.90;;
48516;SDS011;34310;51.904;4.256;2022-11-10T11:52:55;5.68;;;1.77;;
48516;SDS011;34310;51.904;4.256;2022-11-10T12:00:40;10.23;;;2.05;;
48516;SDS011;34310;51.904;4.256;2022-11-10T12:08:52;6.10;;;2.08;;
48516;SDS011;34310;51.904;4.256;2022-11-10T12:11:52;6.55;;;1.73;;
48516;SDS011;34310;51.904;4.256;2022-11-10T12:23:17;6.55;;;2.05;;
48516;SDS011;34310;51.904;4.256;2022-11-10T12:28:49;2.63;;;1.27;;
48516;SDS011;34310;51.904;4.256;2022-11-10T12:31:24;3.58;;;1.27;;
48516;SDS011;34310;51.904;4.256;2022-11-10T12:33:59;6.95;;;1.50;;
48516;SDS011;34310;51.904;4.256;2022-11-10T12:36:35;3.83;;;1.30;;
48516;SDS011;34310;51.904;4.256;2022-11-10T12:41:45;3.95;;;1.50;;
48516;SDS011;34310;51.904;4.256;2022-11-10T12:44:30;2.80;;;1.40;;
48516;SDS011;34310;51.904;4.256;2022-11-10T12:47:06;4.20;;;1.60;;
48516;SDS011;34310;51.904;4.256;2022-11-10T12:49:46;7.28;;;1.80;;
48516;SDS011;34310;51.904;4.256;2022-11-10T12:53:03;4.75;;;1.50;;
48516;SDS011;34310;51.904;4.256;2022-11-10T12:55:36;6.55;;;1.40;;
48516;SDS011;34310;51.904;4.256;2022-11-10T12:58:09;3.08;;;1.30;;
48516;SDS011;34310;51.904;4.256;2022-11-10T13:00:53;3.83;;;1.55;;
48516;SDS011;34310;51.904;4.256;2022-11-10T13:03:28;5.45;;;1.67;;
48516;SDS011;34310;51.904;4.256;2022-11-10T13:05:58;6.05;;;1.80;;
48516;SDS011;34310;51.904;4.256;2022-11-10T13:16:47;4.10;;;1.30;;
48516;SDS011;34310;51.904;4.256;2022-11-10T13:19:49;5.85;;;1.60;;
48516;SDS011;34310;51.904;4.256;2022-11-10T13:27:08;2.80;;;1.30;;
48516;SDS011;34310;51.904;4.256;2022-11-10T13:29:52;3.13;;;1.48;;
48516;SDS011;34310;51.904;4.256;2022-11-10T13:32:31;3.67;;;1.45;;
48516;SDS011;34310;51.904;4.256;2022-11-10T13:38:06;6.63;;;1.48;;
48516;SDS011;34310;51.904;4.256;2022-11-10T13:41:12;2.60;;;1.30;;
48516;SDS011;34310;51.904;4.256;2022-11-10T13:43:46;6.93;;;1.60;;
48516;SDS011;34310;51.904;4.256;2022-11-10T13:46:15;5.20;;;1.48;;
48516;SDS011;34310;51.904;4.256;2022-11-10T13:54:46;5.95;;;1.40;;
48516;SDS011;34310;51.904;4.256;2022-11-10T13:57:51;3.97;;;1.77;;
48516;SDS011;34310;51.904;4.256;2022-11-10T14:00:31;3.33;;;1.38;;
48516;SDS011;34310;51.904;4.256;2022-11-10T14:03:00;3.67;;;1.30;;
48516;SDS011;34310;51.904;4.256;2022-11-10T14:08:10;5.50;;;1.52;;
48516;SDS011;34310;51.904;4.256;2022-11-10T14:14:12;5.70;;;1.60;;
48516;SDS011;34310;51.904;4.256;2022-11-10T14:16:25;4.18;;;1.42;;
48516;SDS011;34310;51.904;4.256;2022-11-10T14:19:06;5.38;;;1.58;;
48516;SDS011;34310;51.904;4.256;2022-11-10T14:21:49;4.78;;;1.60;;
48516;SDS011;34310;51.904;4.256;2022-11-10T14:26:56;5.10;;;1.80;;
48516;SDS011;34310;51.904;4.256;2022-11-10T14:29:39;4.85;;;1.80;;
48516;SDS011;34310;51.904;4.256;2022-11-10T14:34:52;4.15;;;1.50;;
48516;SDS011;34310;51.904;4.256;2022-11-10T14:37:22;3.33;;;1.40;;
48516;SDS011;34310;51.904;4.256;2022-11-10T14:39:52;2.63;;;1.33;;
48516;SDS011;34310;51.904;4.256;2022-11-10T14:42:28;5.75;;;1.20;;
48516;SDS011;34310;51.904;4.256;2022-11-10T14:45:13;3.20;;;1.20;;
48516;SDS011;34310;51.904;4.256;2022-11-10T14:47:57;3.08;;;1.30;;
48516;SDS011;34310;51.904;4.256;2022-11-10T14:50:26;3.90;;;1.27;;
48516;SDS011;34310;51.904;4.256;2022-11-10T14:52:59;3.22;;;1.38;;
48516;SDS011;34310;51.904;4.256;2022-11-10T15:00:37;3.67;;;1.50;;
48516;SDS011;34310;51.904;4.256;2022-11-10T15:03:06;4.68;;;1.67;;
48516;SDS011;34310;51.904;4.256;2022-11-10T15:05:39;2.17;;;1.10;;
48516;SDS011;34310;51.904;4.256;2022-11-10T15:08:07;4.28;;;1.67;;
48516;SDS011;34310;51.904;4.256;2022-11-10T15:15:40;3.70;;;1.20;;
48516;SDS011;34310;51.904;4.256;2022-11-10T15:18:24;3.42;;;1.63;;
48516;SDS011;34310;51.904;4.256;2022-11-10T15:21:03;4.00;;;1.75;;
48516;SDS011;34310;51.904;4.256;2022-11-10T15:23:36;4.90;;;1.67;;
48516;SDS011;34310;51.904;4.256;2022-11-10T15:26:12;4.32;;;1.40;;
48516;SDS011;34310;51.904;4.256;2022-11-10T15:28:53;5.70;;;1.48;;
48516;SDS011;34310;51.904;4.256;2022-11-10T15:31:22;1.95;;;0.93;;
48516;SDS011;34310;51.904;4.256;2022-11-10T15:33:53;3.60;;;1.10;;
48516;SDS011;34310;51.904;4.256;2022-11-10T15:39:03;3.25;;;1.40;;
48516;SDS011;34310;51.904;4.256;2022-11-10T15:41:49;4.35;;;1.73;;
48516;SDS011;34310;51.904;4.256;2022-11-10T15:44:23;3.80;;;1.30;;
48516;SDS011;34310;51.904;4.256;2022-11-10T15:46:53;3.22;;;1.40;;
48516;SDS011;34310;51.904;4.256;2022-11-10T15:49:23;2.67;;;1.20;;
48516;SDS011;34310;51.904;4.256;2022-11-10T15:52:03;4.00;;;1.30;;
48516;SDS011;34310;51.904;4.256;2022-11-10T15:54:36;5.85;;;1.58;;
48516;SDS011;34310;51.904;4.256;2022-11-10T15:57:08;4.38;;;1.60;;
48516;SDS011;34310;51.904;4.256;2022-11-10T15:59:40;3.92;;;1.35;;
48516;SDS011;34310;51.904;4.256;2022-11-10T16:02:24;4.13;;;1.48;;
48516;SDS011;34310;51.904;4.256;2022-11-10T16:04:52;4.00;;;1.27;;
48516;SDS011;34310;51.904;4.256;2022-11-10T16:07:25;2.38;;;1.10;;
48516;SDS011;34310;51.904;4.256;2022-11-10T16:09:52;3.45;;;1.30;;
48516;SDS011;34310;51.904;4.256;2022-11-10T16:12:20;3.30;;;1.30;;
48516;SDS011;34310;51.904;4.256;2022-11-10T16:14:50;3.28;;;1.40;;
48516;SDS011;34310;51.904;4.256;2022-11-10T16:17:19;3.90;;;1.40;;
48516;SDS011;34310;51.904;4.256;2022-11-10T16:19:46;4.00;;;1.45;;
48516;SDS011;34310;51.904;4.256;2022-11-10T16:22:13;4.07;;;1.10;;
48516;SDS011;34310;51.904;4.256;2022-11-10T16:24:41;2.97;;;1.40;;
48516;SDS011;34310;51.904;4.256;2022-11-10T16:27:12;3.40;;;1.20;;
48516;SDS011;34310;51.904;4.256;2022-11-10T16:29:40;3.10;;;1.33;;
48516;SDS011;34310;51.904;4.256;2022-11-10T16:32:09;3.35;;;1.20;;
48516;SDS011;34310;51.904;4.256;2022-11-10T16:34:36;1.88;;;1.08;;
48516;SDS011;34310;51.904;4.256;2022-11-10T16:37:04;3.53;;;1.30;;
48516;SDS011;34310;51.904;4.256;2022-11-10T16:39:31;3.40;;;1.17;;
48516;SDS011;34310;51.904;4.256;2022-11-10T16:41:58;3.92;;;1.67;;
48516;SDS011;34310;51.904;4.256;2022-11-10T16:44:26;3.78;;;1.70;;
48516;SDS011;34310;51.904;4.256;2022-11-10T16:46:53;3.05;;;1.30;;
48516;SDS011;34310;51.904;4.256;2022-11-10T16:49:29;3.58;;;1.20;;
48516;SDS011;34310;51.904;4.256;2022-11-10T16:52:02;3.00;;;1.27;;
48516;SDS011;34310;51.904;4.256;2022-11-10T16:54:37;2.05;;;1.08;;
48516;SDS011;34310;51.904;4.256;2022-11-10T16:57:11;1.67;;;1.08;;
48516;SDS011;34310;51.904;4.256;2022-11-10T16:59:39;5.38;;;1.98;;
48516;SDS011;34310;51.904;4.256;2022-11-10T17:04:56;4.43;;;1.40;;
48516;SDS011;34310;51.904;4.256;2022-11-10T17:07:25;4.60;;;1.30;;
48516;SDS011;34310;51.904;4.256;2022-11-10T17:09:56;3.75;;;1.67;;
48516;SDS011;34310;51.904;4.256;2022-11-10T17:12:25;3.28;;;1.27;;
48516;SDS011;34310;51.904;4.256;2022-11-10T17:14:53;3.75;;;1.30;;
48516;SDS011;34310;51.904;4.256;2022-11-10T17:17:20;3.40;;;1.20;;
48516;SDS011;34310;51.904;4.256;2022-11-10T17:19:48;3.40;;;2.10;;
48516;SDS011;34310;51.904;4.256;2022-11-10T17:22:17;3.45;;;1.98;;
48516;SDS011;34310;51.904;4.256;2022-11-10T17:24:47;2.10;;;1.58;;
48516;SDS011;34310;51.904;4.256;2022-11-10T17:27:21;3.40;;;1.65;;
48516;SDS011;34310;51.904;4.256;2022-11-10T17:29:51;2.60;;;1.85;;